Airfield :
LOGIN :

Register | Disclaimer

   EN    FR    IT 

 










Legend :    VFR   Marginal VFR   IFR   Intensive IFR   Very Intensive IFR
Visi :
Ceiling :
>= 8 km
>= 3000ft
5 to 8 km
1000 to 3000 ft
1500m to 5 km
500 to 1000 ft
800 to 1500m
200 to 500 ft
< 800m
< 200 ft
Symbols :   Thunderstorms  Fog  Heavy snow  Heavy precipitations  Wind > 20 kt
SIGMETs :     Misc.  Thunderstorms  Icing  Turbulence  Mountain Waves  Volcanic Ashes






- Airport Elevation : 102 ft
- IATA code : CNG


LFBG - Cognac

CURRENT METAR :
  • 221130Z AUTO 18011KT 140V220 5000 2100 R23/1300U -RA BR FEW012/// SCT017/// BKN023/// ///CB 18/16 Q1012 TEMPO 2500 SHRA BECMG 30010KT

EXPIRED METARs :
  • 221100Z AUTO 18010KT 9999 FEW013/// BKN021/// BKN036/// ///CB 20/16 Q1012 TEMPO 2500 SHRA
  • 221030Z AUTO 18010KT 9999 FEW017/// SCT072/// BKN094/// ///CB 19/17 Q1012 TEMPO 2500 SHRA
  • 221000Z AUTO VRB03KT 8000 R23/0800U -RA FEW007/// BKN019/// OVC026/// ///CB 17/16 Q1012 TEMPO 2500 SHRA
  • 220930Z AUTO 20008KT 170V250 4200 +RA BR BKN018/// BKN027/// BKN035/// ///CB 17/16 Q1012 TEMPO 2500 SHRA
  • 220900Z AUTO 16008KT 9999 -RA SCT013/// SCT018/// BKN023/// ///CB 18/16 Q1012 TEMPO 4500 -SHRA BKN009 BKN015CB BKN050

TAF TAF LFBG
Valid from the 22 at 09:00 until the 23 at 09:00 UTC


220800Z 2209/2309 17010KT 9999 BKN013 FEW015CB BKN025
BECMG 2209/2210 FEW015CB BKN015
TEMPO 2209/2219 2500 SHRA BKN015CB
PROB40
TEMPO 2211/2218 -TSRA
BECMG 2213/2215 30010KT
BECMG 2219/2220 BKN025
PROB40
TEMPO 2301/2308 BKN009



MET'MAP, your aeronautical weather chart ! - Copyright ORBIFLY December 2007 - Disclaimer

ORBIFLY MET'MAP TEAM :

Programming & Development : Alexandra Zaïnal
Concept & original design : Baudouin d'Aumeries
Assistance for programming : Marc-Olivier Méhu
Technical & hardware support : Manuel Goepfert

Contact : metmap@orbifly.com




SOURCES & CREDITS :

   NOAA